sensor_id;sensor_type;location;lat;lon;timestamp;P1;durP1;ratioP1;P2;durP2;ratioP2
57643;SDS011;43474;46.510;6.686;2023-04-15T00:02:13;8.82;;;8.43;;
57643;SDS011;43474;46.510;6.686;2023-04-15T00:04:39;8.68;;;8.27;;
57643;SDS011;43474;46.510;6.686;2023-04-15T00:07:05;9.25;;;8.75;;
57643;SDS011;43474;46.510;6.686;2023-04-15T00:09:30;11.13;;;10.43;;
57643;SDS011;43474;46.510;6.686;2023-04-15T00:11:56;10.93;;;10.38;;
57643;SDS011;43474;46.510;6.686;2023-04-15T00:14:21;12.75;;;12.07;;
57643;SDS011;43474;46.510;6.686;2023-04-15T00:16:47;14.43;;;13.80;;
57643;SDS011;43474;46.510;6.686;2023-04-15T00:19:19;13.75;;;13.15;;
57643;SDS011;43474;46.510;6.686;2023-04-15T00:21:45;13.98;;;13.35;;
57643;SDS011;43474;46.510;6.686;2023-04-15T00:24:10;18.15;;;17.35;;
57643;SDS011;43474;46.510;6.686;2023-04-15T00:26:36;26.67;;;25.40;;
57643;SDS011;43474;46.510;6.686;2023-04-15T00:29:01;32.90;;;31.45;;
57643;SDS011;43474;46.510;6.686;2023-04-15T00:31:27;37.38;;;35.72;;
57643;SDS011;43474;46.510;6.686;2023-04-15T00:33:54;42.10;;;40.35;;
57643;SDS011;43474;46.510;6.686;2023-04-15T00:36:19;40.65;;;38.85;;
57643;SDS011;43474;46.510;6.686;2023-04-15T00:38:45;45.45;;;43.28;;
57643;SDS011;43474;46.510;6.686;2023-04-15T00:41:11;52.33;;;50.03;;
57643;SDS011;43474;46.510;6.686;2023-04-15T00:43:37;53.97;;;51.58;;
57643;SDS011;43474;46.510;6.686;2023-04-15T00:46:03;43.58;;;41.63;;
57643;SDS011;43474;46.510;6.686;2023-04-15T00:48:30;45.88;;;43.80;;
57643;SDS011;43474;46.510;6.686;2023-04-15T00:50:56;50.75;;;48.60;;
57643;SDS011;43474;46.510;6.686;2023-04-15T00:53:22;52.97;;;50.65;;
57643;SDS011;43474;46.510;6.686;2023-04-15T00:55:48;48.97;;;46.83;;
57643;SDS011;43474;46.510;6.686;2023-04-15T00:58:13;68.30;;;65.32;;
57643;SDS011;43474;46.510;6.686;2023-04-15T01:00:39;89.80;;;85.93;;
57643;SDS011;43474;46.510;6.686;2023-04-15T01:03:06;104.10;;;99.57;;
57643;SDS011;43474;46.510;6.686;2023-04-15T01:05:33;115.85;;;110.50;;
57643;SDS011;43474;46.510;6.686;2023-04-15T01:07:58;120.72;;;115.47;;
57643;SDS011;43474;46.510;6.686;2023-04-15T01:10:24;132.77;;;126.72;;
57643;SDS011;43474;46.510;6.686;2023-04-15T01:12:50;132.35;;;126.63;;
57643;SDS011;43474;46.510;6.686;2023-04-15T01:15:16;135.00;;;129.15;;
57643;SDS011;43474;46.510;6.686;2023-04-15T01:17:42;153.82;;;147.15;;
57643;SDS011;43474;46.510;6.686;2023-04-15T01:20:08;147.38;;;140.98;;
57643;SDS011;43474;46.510;6.686;2023-04-15T01:22:36;151.60;;;144.90;;
57643;SDS011;43474;46.510;6.686;2023-04-15T01:25:08;138.70;;;132.65;;
57643;SDS011;43474;46.510;6.686;2023-04-15T01:27:36;133.13;;;127.22;;
57643;SDS011;43474;46.510;6.686;2023-04-15T01:30:04;122.90;;;117.57;;
57643;SDS011;43474;46.510;6.686;2023-04-15T01:32:32;106.75;;;102.00;;
57643;SDS011;43474;46.510;6.686;2023-04-15T01:35:00;117.13;;;112.00;;
57643;SDS011;43474;46.510;6.686;2023-04-15T01:37:26;110.07;;;105.30;;
57643;SDS011;43474;46.510;6.686;2023-04-15T01:39:52;99.78;;;95.53;;
57643;SDS011;43474;46.510;6.686;2023-04-15T01:42:17;123.90;;;118.50;;
57643;SDS011;43474;46.510;6.686;2023-04-15T01:44:43;135.32;;;129.40;;
57643;SDS011;43474;46.510;6.686;2023-04-15T01:47:08;155.60;;;148.73;;
57643;SDS011;43474;46.510;6.686;2023-04-15T01:49:34;154.75;;;148.02;;
57643;SDS011;43474;46.510;6.686;2023-04-15T01:52:00;163.40;;;156.32;;
57643;SDS011;43474;46.510;6.686;2023-04-15T01:54:25;178.65;;;170.85;;
57643;SDS011;43474;46.510;6.686;2023-04-15T01:56:51;196.93;;;188.35;;
57643;SDS011;43474;46.510;6.686;2023-04-15T01:59:17;210.88;;;201.52;;
57643;SDS011;43474;46.510;6.686;2023-04-15T02:01:43;200.45;;;191.73;;
57643;SDS011;43474;46.510;6.686;2023-04-15T02:04:09;191.02;;;182.65;;
57643;SDS011;43474;46.510;6.686;2023-04-15T02:06:41;194.40;;;185.95;;
57643;SDS011;43474;46.510;6.686;2023-04-15T02:09:08;184.18;;;176.10;;
57643;SDS011;43474;46.510;6.686;2023-04-15T02:11:34;208.23;;;199.13;;
57643;SDS011;43474;46.510;6.686;2023-04-15T02:14:02;209.50;;;200.35;;
57643;SDS011;43474;46.510;6.686;2023-04-15T02:16:29;205.63;;;196.65;;
57643;SDS011;43474;46.510;6.686;2023-04-15T02:18:56;204.75;;;195.77;;
57643;SDS011;43474;46.510;6.686;2023-04-15T02:21:22;225.73;;;215.82;;
57643;SDS011;43474;46.510;6.686;2023-04-15T02:23:47;233.23;;;222.90;;
57643;SDS011;43474;46.510;6.686;2023-04-15T02:26:13;246.45;;;235.57;;
57643;SDS011;43474;46.510;6.686;2023-04-15T02:28:39;234.68;;;224.30;;
57643;SDS011;43474;46.510;6.686;2023-04-15T02:31:05;224.60;;;214.77;;
57643;SDS011;43474;46.510;6.686;2023-04-15T02:33:32;200.95;;;192.00;;
57643;SDS011;43474;46.510;6.686;2023-04-15T02:35:57;194.02;;;185.60;;
57643;SDS011;43474;46.510;6.686;2023-04-15T02:38:23;222.20;;;212.45;;
57643;SDS011;43474;46.510;6.686;2023-04-15T02:40:49;239.45;;;228.95;;
57643;SDS011;43474;46.510;6.686;2023-04-15T02:43:15;230.77;;;220.65;;
57643;SDS011;43474;46.510;6.686;2023-04-15T02:45:41;235.57;;;225.18;;
57643;SDS011;43474;46.510;6.686;2023-04-15T02:48:08;248.07;;;237.10;;
57643;SDS011;43474;46.510;6.686;2023-04-15T02:50:33;256.92;;;245.52;;
57643;SDS011;43474;46.510;6.686;2023-04-15T02:53:00;243.73;;;232.82;;
57643;SDS011;43474;46.510;6.686;2023-04-15T02:55:26;233.32;;;222.95;;
57643;SDS011;43474;46.510;6.686;2023-04-15T02:57:52;222.82;;;213.13;;
57643;SDS011;43474;46.510;6.686;2023-04-15T03:00:18;226.13;;;216.23;;
57643;SDS011;43474;46.510;6.686;2023-04-15T03:02:44;220.18;;;210.15;;
57643;SDS011;43474;46.510;6.686;2023-04-15T03:05:11;239.27;;;228.73;;
57643;SDS011;43474;46.510;6.686;2023-04-15T03:07:38;231.68;;;221.52;;
57643;SDS011;43474;46.510;6.686;2023-04-15T03:10:05;236.35;;;225.98;;
57643;SDS011;43474;46.510;6.686;2023-04-15T03:12:32;246.27;;;235.35;;
57643;SDS011;43474;46.510;6.686;2023-04-15T03:14:57;264.88;;;253.05;;
57643;SDS011;43474;46.510;6.686;2023-04-15T03:17:24;270.85;;;258.77;;
57643;SDS011;43474;46.510;6.686;2023-04-15T03:19:50;276.00;;;263.65;;
57643;SDS011;43474;46.510;6.686;2023-04-15T03:22:15;267.55;;;255.60;;
57643;SDS011;43474;46.510;6.686;2023-04-15T03:24:41;265.65;;;253.68;;
57643;SDS011;43474;46.510;6.686;2023-04-15T03:27:09;282.10;;;269.25;;
57643;SDS011;43474;46.510;6.686;2023-04-15T03:29:35;279.67;;;267.15;;
57643;SDS011;43474;46.510;6.686;2023-04-15T03:32:01;285.50;;;272.67;;
57643;SDS011;43474;46.510;6.686;2023-04-15T03:34:26;274.27;;;262.00;;
57643;SDS011;43474;46.510;6.686;2023-04-15T03:36:52;281.42;;;268.67;;
57643;SDS011;43474;46.510;6.686;2023-04-15T03:39:17;293.60;;;280.35;;
57643;SDS011;43474;46.510;6.686;2023-04-15T03:41:43;293.90;;;280.65;;
57643;SDS011;43474;46.510;6.686;2023-04-15T03:44:08;276.15;;;263.30;;
57643;SDS011;43474;46.510;6.686;2023-04-15T03:46:34;282.90;;;270.20;;
57643;SDS011;43474;46.510;6.686;2023-04-15T03:49:00;311.10;;;296.77;;
57643;SDS011;43474;46.510;6.686;2023-04-15T03:51:26;308.05;;;293.92;;
57643;SDS011;43474;46.510;6.686;2023-04-15T03:53:52;310.63;;;296.35;;
57643;SDS011;43474;46.510;6.686;2023-04-15T03:56:18;306.45;;;292.50;;
57643;SDS011;43474;46.510;6.686;2023-04-15T03:58:46;314.25;;;299.75;;
57643;SDS011;43474;46.510;6.686;2023-04-15T04:01:12;320.40;;;305.55;;
57643;SDS011;43474;46.510;6.686;2023-04-15T04:03:37;313.88;;;299.55;;
57643;SDS011;43474;46.510;6.686;2023-04-15T04:06:03;326.02;;;310.85;;
57643;SDS011;43474;46.510;6.686;2023-04-15T04:08:29;315.42;;;301.08;;
57643;SDS011;43474;46.510;6.686;2023-04-15T04:10:55;307.13;;;293.10;;
57643;SDS011;43474;46.510;6.686;2023-04-15T04:13:21;307.60;;;293.48;;
57643;SDS011;43474;46.510;6.686;2023-04-15T04:15:46;310.75;;;296.48;;
57643;SDS011;43474;46.510;6.686;2023-04-15T04:18:12;308.23;;;294.17;;
57643;SDS011;43474;46.510;6.686;2023-04-15T04:20:37;305.75;;;291.90;;
57643;SDS011;43474;46.510;6.686;2023-04-15T04:23:03;318.92;;;304.33;;
57643;SDS011;43474;46.510;6.686;2023-04-15T04:25:28;318.35;;;303.83;;
57643;SDS011;43474;46.510;6.686;2023-04-15T04:27:54;323.17;;;308.33;;
57643;SDS011;43474;46.510;6.686;2023-04-15T04:30:19;323.65;;;308.90;;
57643;SDS011;43474;46.510;6.686;2023-04-15T04:32:45;331.25;;;315.92;;
57643;SDS011;43474;46.510;6.686;2023-04-15T04:35:11;329.58;;;314.48;;
57643;SDS011;43474;46.510;6.686;2023-04-15T04:37:36;332.20;;;317.00;;
57643;SDS011;43474;46.510;6.686;2023-04-15T04:40:02;328.67;;;313.67;;
57643;SDS011;43474;46.510;6.686;2023-04-15T04:42:28;331.25;;;315.92;;
57643;SDS011;43474;46.510;6.686;2023-04-15T04:44:54;335.30;;;319.88;;
57643;SDS011;43474;46.510;6.686;2023-04-15T04:47:19;326.95;;;311.83;;
57643;SDS011;43474;46.510;6.686;2023-04-15T04:49:45;325.75;;;310.77;;
57643;SDS011;43474;46.510;6.686;2023-04-15T04:52:11;328.80;;;313.50;;
57643;SDS011;43474;46.510;6.686;2023-04-15T04:54:37;322.85;;;307.90;;
57643;SDS011;43474;46.510;6.686;2023-04-15T04:57:02;317.10;;;302.55;;
57643;SDS011;43474;46.510;6.686;2023-04-15T04:59:28;317.55;;;303.00;;
57643;SDS011;43474;46.510;6.686;2023-04-15T05:01:53;316.73;;;302.25;;
57643;SDS011;43474;46.510;6.686;2023-04-15T05:04:19;316.73;;;302.27;;
57643;SDS011;43474;46.510;6.686;2023-04-15T05:06:45;324.70;;;309.65;;
57643;SDS011;43474;46.510;6.686;2023-04-15T05:09:10;324.08;;;309.23;;
57643;SDS011;43474;46.510;6.686;2023-04-15T05:11:36;329.80;;;314.60;;
57643;SDS011;43474;46.510;6.686;2023-04-15T05:14:01;334.23;;;318.80;;
57643;SDS011;43474;46.510;6.686;2023-04-15T05:16:27;343.20;;;327.25;;
57643;SDS011;43474;46.510;6.686;2023-04-15T05:18:53;355.17;;;338.40;;
57643;SDS011;43474;46.510;6.686;2023-04-15T05:21:18;357.70;;;340.80;;
57643;SDS011;43474;46.510;6.686;2023-04-15T05:23:45;350.70;;;334.10;;
57643;SDS011;43474;46.510;6.686;2023-04-15T05:26:11;347.00;;;330.50;;
57643;SDS011;43474;46.510;6.686;2023-04-15T05:28:36;340.67;;;324.83;;
57643;SDS011;43474;46.510;6.686;2023-04-15T05:31:02;342.48;;;326.35;;
57643;SDS011;43474;46.510;6.686;2023-04-15T05:33:28;347.98;;;331.70;;
57643;SDS011;43474;46.510;6.686;2023-04-15T05:35:53;351.25;;;334.67;;
57643;SDS011;43474;46.510;6.686;2023-04-15T05:38:19;337.27;;;321.55;;
57643;SDS011;43474;46.510;6.686;2023-04-15T05:40:44;335.13;;;319.42;;
57643;SDS011;43474;46.510;6.686;2023-04-15T05:43:10;353.52;;;336.92;;
57643;SDS011;43474;46.510;6.686;2023-04-15T05:45:36;349.23;;;332.58;;
57643;SDS011;43474;46.510;6.686;2023-04-15T05:48:01;344.25;;;328.20;;
57643;SDS011;43474;46.510;6.686;2023-04-15T05:50:27;349.00;;;332.63;;
57643;SDS011;43474;46.510;6.686;2023-04-15T05:52:52;354.75;;;338.00;;
57643;SDS011;43474;46.510;6.686;2023-04-15T05:55:18;347.90;;;331.48;;
57643;SDS011;43474;46.510;6.686;2023-04-15T05:57:43;346.05;;;329.83;;
57643;SDS011;43474;46.510;6.686;2023-04-15T06:00:09;362.70;;;345.45;;
57643;SDS011;43474;46.510;6.686;2023-04-15T06:02:36;370.88;;;353.17;;
57643;SDS011;43474;46.510;6.686;2023-04-15T06:05:01;376.02;;;357.95;;
57643;SDS011;43474;46.510;6.686;2023-04-15T06:07:28;380.98;;;362.70;;
57643;SDS011;43474;46.510;6.686;2023-04-15T06:09:53;381.25;;;362.83;;
57643;SDS011;43474;46.510;6.686;2023-04-15T06:12:19;372.42;;;354.52;;
57643;SDS011;43474;46.510;6.686;2023-04-15T06:14:44;379.75;;;361.45;;
57643;SDS011;43474;46.510;6.686;2023-04-15T06:17:10;389.60;;;370.65;;
57643;SDS011;43474;46.510;6.686;2023-04-15T06:19:39;393.90;;;374.65;;
57643;SDS011;43474;46.510;6.686;2023-04-15T06:22:04;393.00;;;373.75;;
57643;SDS011;43474;46.510;6.686;2023-04-15T06:24:31;378.30;;;360.02;;
57643;SDS011;43474;46.510;6.686;2023-04-15T06:26:57;377.92;;;359.80;;
57643;SDS011;43474;46.510;6.686;2023-04-15T06:29:22;353.85;;;337.10;;
57643;SDS011;43474;46.510;6.686;2023-04-15T06:31:48;336.35;;;320.45;;
57643;SDS011;43474;46.510;6.686;2023-04-15T06:34:14;323.13;;;308.25;;
57643;SDS011;43474;46.510;6.686;2023-04-15T06:36:39;313.38;;;298.77;;
57643;SDS011;43474;46.510;6.686;2023-04-15T06:39:05;282.95;;;269.95;;
57643;SDS011;43474;46.510;6.686;2023-04-15T06:41:30;266.63;;;254.43;;
57643;SDS011;43474;46.510;6.686;2023-04-15T06:43:56;237.00;;;226.27;;
57643;SDS011;43474;46.510;6.686;2023-04-15T06:46:22;213.32;;;203.82;;
57643;SDS011;43474;46.510;6.686;2023-04-15T06:48:48;197.30;;;188.52;;
57643;SDS011;43474;46.510;6.686;2023-04-15T06:51:13;185.68;;;177.30;;
57643;SDS011;43474;46.510;6.686;2023-04-15T06:53:39;165.90;;;158.48;;
57643;SDS011;43474;46.510;6.686;2023-04-15T06:56:07;153.60;;;146.70;;
57643;SDS011;43474;46.510;6.686;2023-04-15T06:58:33;149.18;;;142.35;;
57643;SDS011;43474;46.510;6.686;2023-04-15T07:00:59;165.18;;;157.68;;
57643;SDS011;43474;46.510;6.686;2023-04-15T07:03:25;161.98;;;154.75;;
57643;SDS011;43474;46.510;6.686;2023-04-15T07:05:51;160.77;;;153.60;;
57643;SDS011;43474;46.510;6.686;2023-04-15T07:08:17;160.88;;;153.68;;
57643;SDS011;43474;46.510;6.686;2023-04-15T07:10:44;156.30;;;149.27;;
57643;SDS011;43474;46.510;6.686;2023-04-15T07:13:11;167.27;;;159.57;;
57643;SDS011;43474;46.510;6.686;2023-04-15T07:15:37;183.30;;;175.15;;
57643;SDS011;43474;46.510;6.686;2023-04-15T07:18:02;189.80;;;181.15;;
57643;SDS011;43474;46.510;6.686;2023-04-15T07:20:28;202.02;;;192.90;;
57643;SDS011;43474;46.510;6.686;2023-04-15T07:22:53;216.43;;;206.65;;
57643;SDS011;43474;46.510;6.686;2023-04-15T07:25:19;225.88;;;215.75;;
57643;SDS011;43474;46.510;6.686;2023-04-15T07:27:45;231.32;;;221.02;;
57643;SDS011;43474;46.510;6.686;2023-04-15T07:30:10;241.57;;;230.80;;
57643;SDS011;43474;46.510;6.686;2023-04-15T07:32:37;234.02;;;223.50;;
57643;SDS011;43474;46.510;6.686;2023-04-15T07:35:03;248.80;;;237.48;;
57643;SDS011;43474;46.510;6.686;2023-04-15T07:37:28;248.07;;;236.65;;
57643;SDS011;43474;46.510;6.686;2023-04-15T07:39:54;250.80;;;239.38;;
57643;SDS011;43474;46.510;6.686;2023-04-15T07:42:20;254.02;;;242.23;;
57643;SDS011;43474;46.510;6.686;2023-04-15T07:44:46;267.20;;;255.07;;
57643;SDS011;43474;46.510;6.686;2023-04-15T07:47:11;256.13;;;244.48;;
57643;SDS011;43474;46.510;6.686;2023-04-15T07:49:37;254.50;;;243.00;;
57643;SDS011;43474;46.510;6.686;2023-04-15T07:52:03;247.18;;;236.13;;
57643;SDS011;43474;46.510;6.686;2023-04-15T07:54:28;242.82;;;231.65;;
57643;SDS011;43474;46.510;6.686;2023-04-15T07:56:54;272.25;;;260.02;;
57643;SDS011;43474;46.510;6.686;2023-04-15T07:59:20;279.02;;;266.38;;
57643;SDS011;43474;46.510;6.686;2023-04-15T08:01:46;265.73;;;253.73;;
57643;SDS011;43474;46.510;6.686;2023-04-15T08:04:12;265.80;;;253.80;;
57643;SDS011;43474;46.510;6.686;2023-04-15T08:06:38;262.90;;;251.07;;
57643;SDS011;43474;46.510;6.686;2023-04-15T08:09:04;256.55;;;245.00;;
57643;SDS011;43474;46.510;6.686;2023-04-15T08:11:30;264.73;;;252.73;;
57643;SDS011;43474;46.510;6.686;2023-04-15T08:13:56;281.13;;;268.38;;
57643;SDS011;43474;46.510;6.686;2023-04-15T08:16:22;276.95;;;264.35;;
57643;SDS011;43474;46.510;6.686;2023-04-15T08:18:50;243.98;;;232.77;;
57643;SDS011;43474;46.510;6.686;2023-04-15T08:21:17;244.25;;;232.52;;
57643;SDS011;43474;46.510;6.686;2023-04-15T08:23:44;294.55;;;280.88;;
57643;SDS011;43474;46.510;6.686;2023-04-15T08:26:11;326.02;;;310.85;;
57643;SDS011;43474;46.510;6.686;2023-04-15T08:28:38;366.63;;;349.17;;
57643;SDS011;43474;46.510;6.686;2023-04-15T08:31:04;400.50;;;380.95;;
57643;SDS011;43474;46.510;6.686;2023-04-15T08:33:30;393.88;;;374.58;;
57643;SDS011;43474;46.510;6.686;2023-04-15T08:35:56;368.08;;;350.55;;
57643;SDS011;43474;46.510;6.686;2023-04-15T08:38:22;368.42;;;350.83;;
57643;SDS011;43474;46.510;6.686;2023-04-15T08:40:48;355.02;;;338.13;;
57643;SDS011;43474;46.510;6.686;2023-04-15T08:43:16;353.77;;;336.90;;
57643;SDS011;43474;46.510;6.686;2023-04-15T08:45:46;364.17;;;346.65;;
57643;SDS011;43474;46.510;6.686;2023-04-15T08:48:14;406.35;;;386.60;;
57643;SDS011;43474;46.510;6.686;2023-04-15T08:50:43;429.48;;;408.02;;
57643;SDS011;43474;46.510;6.686;2023-04-15T08:53:09;417.50;;;396.90;;
57643;SDS011;43474;46.510;6.686;2023-04-15T08:55:37;431.48;;;410.23;;
57643;SDS011;43474;46.510;6.686;2023-04-15T08:58:09;420.05;;;399.20;;
57643;SDS011;43474;46.510;6.686;2023-04-15T09:00:35;422.75;;;401.83;;
57643;SDS011;43474;46.510;6.686;2023-04-15T09:03:03;433.63;;;412.17;;
57643;SDS011;43474;46.510;6.686;2023-04-15T09:05:39;422.88;;;401.92;;
57643;SDS011;43474;46.510;6.686;2023-04-15T09:08:05;419.92;;;399.20;;
57643;SDS011;43474;46.510;6.686;2023-04-15T09:10:31;435.98;;;414.27;;
57643;SDS011;43474;46.510;6.686;2023-04-15T09:12:58;447.15;;;424.92;;
57643;SDS011;43474;46.510;6.686;2023-04-15T09:15:23;434.95;;;413.30;;
57643;SDS011;43474;46.510;6.686;2023-04-15T09:17:49;435.38;;;413.67;;
57643;SDS011;43474;46.510;6.686;2023-04-15T09:20:15;422.88;;;401.92;;
57643;SDS011;43474;46.510;6.686;2023-04-15T09:22:44;443.90;;;421.88;;
57643;SDS011;43474;46.510;6.686;2023-04-15T09:27:57;440.38;;;418.67;;
57643;SDS011;43474;46.510;6.686;2023-04-15T09:30:26;426.23;;;405.27;;
57643;SDS011;43474;46.510;6.686;2023-04-15T09:32:53;400.67;;;381.23;;
57643;SDS011;43474;46.510;6.686;2023-04-15T09:35:20;418.92;;;398.48;;
57643;SDS011;43474;46.510;6.686;2023-04-15T09:37:48;425.33;;;404.27;;
57643;SDS011;43474;46.510;6.686;2023-04-15T09:40:17;439.90;;;418.10;;
57643;SDS011;43474;46.510;6.686;2023-04-15T09:42:56;435.42;;;413.77;;
57643;SDS011;43474;46.510;6.686;2023-04-15T09:45:23;435.58;;;414.05;;
57643;SDS011;43474;46.510;6.686;2023-04-15T09:47:49;420.92;;;400.20;;
57643;SDS011;43474;46.510;6.686;2023-04-15T09:50:18;404.95;;;385.30;;
57643;SDS011;43474;46.510;6.686;2023-04-15T09:52:44;378.67;;;360.48;;
57643;SDS011;43474;46.510;6.686;2023-04-15T09:55:10;382.02;;;363.50;;
57643;SDS011;43474;46.510;6.686;2023-04-15T09:57:38;404.77;;;385.08;;
57643;SDS011;43474;46.510;6.686;2023-04-15T10:00:06;436.30;;;414.60;;
57643;SDS011;43474;46.510;6.686;2023-04-15T10:02:33;436.50;;;414.75;;
57643;SDS011;43474;46.510;6.686;2023-04-15T10:04:59;426.33;;;405.23;;
57643;SDS011;43474;46.510;6.686;2023-04-15T10:07:26;426.58;;;405.38;;
57643;SDS011;43474;46.510;6.686;2023-04-15T10:09:52;425.70;;;404.65;;
57643;SDS011;43474;46.510;6.686;2023-04-15T10:12:18;451.50;;;429.10;;
57643;SDS011;43474;46.510;6.686;2023-04-15T10:14:47;449.85;;;427.35;;
57643;SDS011;43474;46.510;6.686;2023-04-15T10:17:17;433.55;;;411.98;;
57643;SDS011;43474;46.510;6.686;2023-04-15T10:19:46;429.92;;;408.73;;
57643;SDS011;43474;46.510;6.686;2023-04-15T10:22:13;420.98;;;400.25;;
57643;SDS011;43474;46.510;6.686;2023-04-15T10:24:39;421.05;;;400.45;;
57643;SDS011;43474;46.510;6.686;2023-04-15T10:27:05;434.95;;;413.45;;
57643;SDS011;43474;46.510;6.686;2023-04-15T10:29:31;448.05;;;425.63;;
57643;SDS011;43474;46.510;6.686;2023-04-15T10:31:57;458.13;;;435.27;;
57643;SDS011;43474;46.510;6.686;2023-04-15T10:34:24;448.55;;;426.35;;
57643;SDS011;43474;46.510;6.686;2023-04-15T10:36:54;447.50;;;425.17;;
57643;SDS011;43474;46.510;6.686;2023-04-15T10:42:11;441.63;;;419.75;;
57643;SDS011;43474;46.510;6.686;2023-04-15T10:44:38;438.88;;;416.85;;
57643;SDS011;43474;46.510;6.686;2023-04-15T10:47:11;451.92;;;429.42;;
57643;SDS011;43474;46.510;6.686;2023-04-15T10:52:08;452.08;;;429.55;;
57643;SDS011;43474;46.510;6.686;2023-04-15T10:54:33;447.50;;;425.20;;
57643;SDS011;43474;46.510;6.686;2023-04-15T10:59:29;436.15;;;414.65;;
57643;SDS011;43474;46.510;6.686;2023-04-15T11:02:03;428.38;;;407.23;;
57643;SDS011;43474;46.510;6.686;2023-04-15T11:12:38;439.80;;;418.15;;
57643;SDS011;43474;46.510;6.686;2023-04-15T11:17:52;446.25;;;424.10;;
57643;SDS011;43474;46.510;6.686;2023-04-15T11:20:18;441.55;;;419.63;;
57643;SDS011;43474;46.510;6.686;2023-04-15T11:22:51;450.08;;;427.63;;
57643;SDS011;43474;46.510;6.686;2023-04-15T11:25:25;460.75;;;437.83;;
57643;SDS011;43474;46.510;6.686;2023-04-15T11:27:52;452.48;;;429.98;;
57643;SDS011;43474;46.510;6.686;2023-04-15T11:32:46;450.25;;;427.92;;
57643;SDS011;43474;46.510;6.686;2023-04-15T11:35:16;451.15;;;428.63;;
57643;SDS011;43474;46.510;6.686;2023-04-15T11:37:45;446.60;;;424.40;;
57643;SDS011;43474;46.510;6.686;2023-04-15T11:40:12;457.98;;;435.15;;
57643;SDS011;43474;46.510;6.686;2023-04-15T11:42:39;442.88;;;420.85;;
57643;SDS011;43474;46.510;6.686;2023-04-15T11:45:08;446.27;;;424.10;;
57643;SDS011;43474;46.510;6.686;2023-04-15T11:47:39;452.67;;;430.17;;
57643;SDS011;43474;46.510;6.686;2023-04-15T11:50:21;461.60;;;438.60;;
57643;SDS011;43474;46.510;6.686;2023-04-15T11:53:07;465.33;;;442.00;;
57643;SDS011;43474;46.510;6.686;2023-04-15T11:55:49;462.40;;;439.13;;
57643;SDS011;43474;46.510;6.686;2023-04-15T11:58:18;453.48;;;430.88;;
57643;SDS011;43474;46.510;6.686;2023-04-15T12:00:52;460.42;;;437.48;;
57643;SDS011;43474;46.510;6.686;2023-04-15T12:03:24;452.15;;;429.67;;
57643;SDS011;43474;46.510;6.686;2023-04-15T12:06:04;449.27;;;426.88;;
57643;SDS011;43474;46.510;6.686;2023-04-15T12:13:55;454.77;;;431.90;;
57643;SDS011;43474;46.510;6.686;2023-04-15T12:16:21;447.65;;;425.45;;
57643;SDS011;43474;46.510;6.686;2023-04-15T12:18:51;451.80;;;429.10;;
57643;SDS011;43474;46.510;6.686;2023-04-15T12:21:21;440.08;;;418.27;;
57643;SDS011;43474;46.510;6.686;2023-04-15T12:23:51;461.63;;;438.63;;
57643;SDS011;43474;46.510;6.686;2023-04-15T12:26:25;452.00;;;429.43;;
57643;SDS011;43474;46.510;6.686;2023-04-15T12:28:53;431.10;;;409.77;;
57643;SDS011;43474;46.510;6.686;2023-04-15T12:31:25;387.08;;;368.50;;
57643;SDS011;43474;46.510;6.686;2023-04-15T12:33:53;384.98;;;366.45;;
57643;SDS011;43474;46.510;6.686;2023-04-15T12:36:20;330.38;;;315.25;;
57643;SDS011;43474;46.510;6.686;2023-04-15T12:38:45;330.00;;;314.83;;
57643;SDS011;43474;46.510;6.686;2023-04-15T12:41:11;335.48;;;319.88;;
57643;SDS011;43474;46.510;6.686;2023-04-15T12:43:37;306.15;;;292.48;;
57643;SDS011;43474;46.510;6.686;2023-04-15T12:46:02;354.25;;;337.70;;
57643;SDS011;43474;46.510;6.686;2023-04-15T12:48:29;316.13;;;301.88;;
57643;SDS011;43474;46.510;6.686;2023-04-15T12:50:54;313.45;;;299.30;;
57643;SDS011;43474;46.510;6.686;2023-04-15T12:53:20;344.00;;;328.00;;
57643;SDS011;43474;46.510;6.686;2023-04-15T12:55:46;370.05;;;352.48;;
57643;SDS011;43474;46.510;6.686;2023-04-15T12:58:11;376.63;;;358.65;;
57643;SDS011;43474;46.510;6.686;2023-04-15T13:00:37;319.05;;;304.52;;
57643;SDS011;43474;46.510;6.686;2023-04-15T13:03:03;314.25;;;300.08;;
57643;SDS011;43474;46.510;6.686;2023-04-15T13:05:29;328.25;;;313.00;;
57643;SDS011;43474;46.510;6.686;2023-04-15T13:07:55;352.13;;;335.52;;
57643;SDS011;43474;46.510;6.686;2023-04-15T13:10:20;360.95;;;344.00;;
57643;SDS011;43474;46.510;6.686;2023-04-15T13:12:47;385.23;;;366.77;;
57643;SDS011;43474;46.510;6.686;2023-04-15T13:15:16;368.75;;;351.23;;
57643;SDS011;43474;46.510;6.686;2023-04-15T13:17:45;350.33;;;334.02;;
57643;SDS011;43474;46.510;6.686;2023-04-15T13:20:10;376.63;;;358.75;;
57643;SDS011;43474;46.510;6.686;2023-04-15T13:22:36;425.42;;;404.45;;
57643;SDS011;43474;46.510;6.686;2023-04-15T13:25:01;419.20;;;398.73;;
57643;SDS011;43474;46.510;6.686;2023-04-15T13:27:30;416.20;;;395.90;;
57643;SDS011;43474;46.510;6.686;2023-04-15T13:29:55;423.88;;;403.15;;
57643;SDS011;43474;46.510;6.686;2023-04-15T13:32:21;396.23;;;377.00;;
57643;SDS011;43474;46.510;6.686;2023-04-15T13:34:47;398.08;;;378.80;;
57643;SDS011;43474;46.510;6.686;2023-04-15T13:37:12;405.20;;;385.48;;
57643;SDS011;43474;46.510;6.686;2023-04-15T13:39:38;378.95;;;360.88;;
57643;SDS011;43474;46.510;6.686;2023-04-15T13:42:03;358.63;;;341.88;;
57643;SDS011;43474;46.510;6.686;2023-04-15T13:44:29;340.33;;;324.38;;
57643;SDS011;43474;46.510;6.686;2023-04-15T13:46:55;370.05;;;352.35;;
57643;SDS011;43474;46.510;6.686;2023-04-15T13:49:20;402.52;;;382.98;;
57643;SDS011;43474;46.510;6.686;2023-04-15T13:51:46;395.55;;;376.40;;
57643;SDS011;43474;46.510;6.686;2023-04-15T13:54:11;419.90;;;399.35;;
57643;SDS011;43474;46.510;6.686;2023-04-15T13:56:37;375.67;;;357.75;;
57643;SDS011;43474;46.510;6.686;2023-04-15T13:59:03;384.85;;;366.33;;
57643;SDS011;43474;46.510;6.686;2023-04-15T14:01:28;391.27;;;372.40;;
57643;SDS011;43474;46.510;6.686;2023-04-15T14:03:54;399.33;;;380.10;;
57643;SDS011;43474;46.510;6.686;2023-04-15T14:06:20;405.25;;;385.63;;
57643;SDS011;43474;46.510;6.686;2023-04-15T14:08:45;419.27;;;398.63;;
57643;SDS011;43474;46.510;6.686;2023-04-15T14:11:11;423.02;;;402.20;;
57643;SDS011;43474;46.510;6.686;2023-04-15T14:13:36;407.20;;;387.30;;
57643;SDS011;43474;46.510;6.686;2023-04-15T14:16:02;400.63;;;381.08;;
57643;SDS011;43474;46.510;6.686;2023-04-15T14:18:28;406.92;;;386.83;;
57643;SDS011;43474;46.510;6.686;2023-04-15T14:20:55;412.15;;;391.88;;
57643;SDS011;43474;46.510;6.686;2023-04-15T14:23:21;400.23;;;380.67;;
57643;SDS011;43474;46.510;6.686;2023-04-15T14:25:47;398.13;;;378.75;;